createdAt,value
2018-09-12T00:00:29.466Z,48.2
2018-09-12T00:05:27.559Z,48.1
2018-09-12T00:10:24.926Z,48.3
2018-09-12T00:15:22.248Z,48.8
2018-09-12T00:20:19.456Z,48.7
2018-09-12T00:25:16.976Z,48.9
2018-09-12T00:30:14.303Z,49.1
2018-09-12T00:35:12.225Z,49.5
2018-09-12T00:40:10.377Z,49.2
2018-09-12T00:45:08.088Z,49.1
2018-09-12T00:50:05.510Z,49
2018-09-12T00:55:03.110Z,49.4
2018-09-12T01:00:00.569Z,49.6
2018-09-12T01:04:58.209Z,49.9
2018-09-12T01:09:55.593Z,49.9
2018-09-12T01:14:53.463Z,50.4
2018-09-12T01:19:51.574Z,50.7
2018-09-12T01:24:49.125Z,51.3
2018-09-12T01:29:46.571Z,51.7
2018-09-12T01:34:44.142Z,51.8
2018-09-12T01:39:41.758Z,51.8
2018-09-12T01:44:38.854Z,51.8
2018-09-12T01:49:36.326Z,52
2018-09-12T01:54:34.283Z,51.8
2018-09-12T01:59:32.745Z,52.4
2018-09-12T02:04:30.509Z,52.1
2018-09-12T02:09:28.148Z,52.1
2018-09-12T02:14:26.113Z,52.1
2018-09-12T02:19:23.420Z,52.3
2018-09-12T02:24:21.199Z,52.1
2018-09-12T02:29:18.743Z,52.2
2018-09-12T02:34:16.419Z,52.2
2018-09-12T02:39:14.369Z,52.3
2018-09-12T02:44:11.410Z,52.5
2018-09-12T02:49:08.563Z,52.7
2018-09-12T02:54:06.092Z,53.2
2018-09-12T02:59:03.872Z,53.3
2018-09-12T03:04:01.468Z,53.2
2018-09-12T03:08:59.290Z,53.3
2018-09-12T03:13:56.927Z,53.2
2018-09-12T03:18:54.332Z,53.2
2018-09-12T03:23:52.629Z,53.7
2018-09-12T03:28:49.898Z,53.4
2018-09-12T03:33:47.353Z,53.5
2018-09-12T03:38:44.706Z,53.5
2018-09-12T03:43:42.292Z,53.5
2018-09-12T03:48:39.791Z,53.4
2018-09-12T03:53:37.322Z,53.4
2018-09-12T03:58:35.165Z,53.8
2018-09-12T04:03:32.924Z,54
2018-09-12T04:08:30.357Z,53.9
2018-09-12T04:13:27.883Z,53.8
2018-09-12T04:18:26.519Z,54
2018-09-12T04:23:23.591Z,54.2
2018-09-12T04:28:21.527Z,54.4
2018-09-12T04:33:18.683Z,54.3
2018-09-12T04:38:16.236Z,54.4
2018-09-12T04:43:13.860Z,54.2
2018-09-12T04:48:11.036Z,54.2
2018-09-12T04:53:08.931Z,54.2
2018-09-12T04:58:07.328Z,54.3
2018-09-12T05:03:04.565Z,54.2
2018-09-12T05:08:02.186Z,54.3
2018-09-12T05:13:00.155Z,54.5
2018-09-12T05:17:57.710Z,54.5
2018-09-12T05:22:54.944Z,54.4
2018-09-12T05:27:52.584Z,54.3
2018-09-12T05:32:50.085Z,54.8
2018-09-12T05:37:47.600Z,54.9
2018-09-12T05:42:44.699Z,54.6
2018-09-12T05:47:42.052Z,54.8
2018-09-12T05:52:39.730Z,54.6
2018-09-12T05:57:37.276Z,54.7
2018-09-12T06:02:35.241Z,54.8
2018-09-12T06:07:32.429Z,54.5
2018-09-12T06:12:29.995Z,54.4
2018-09-12T06:17:27.261Z,54.4
2018-09-12T06:22:24.710Z,54.5
2018-09-12T06:27:22.684Z,54.2
2018-09-12T06:32:20.215Z,54.1
2018-09-12T06:37:17.581Z,54.1
2018-09-12T06:42:15.658Z,54.1
2018-09-12T06:47:13.424Z,53.8
2018-09-12T06:52:11.713Z,53.7
2018-09-12T06:57:09.170Z,53.6
2018-09-12T07:02:06.983Z,53.7
2018-09-12T07:07:04.203Z,53.2
2018-09-12T07:12:01.927Z,53.1
2018-09-12T07:16:59.928Z,52.4
2018-09-12T07:21:57.339Z,52.1
2018-09-12T07:26:55.121Z,52
2018-09-12T07:31:53.068Z,51.7
2018-09-12T07:36:51.176Z,51.5
2018-09-12T07:41:48.773Z,50.7
2018-09-12T07:46:46.306Z,50.6
2018-09-12T07:51:44.301Z,50.3
2018-09-12T07:56:42.327Z,50.2
2018-09-12T08:01:40.416Z,50
2018-09-12T08:06:38.353Z,49.2
2018-09-12T08:11:36.104Z,47.9
2018-09-12T08:16:33.689Z,48.2
2018-09-12T08:21:31.602Z,47.7
2018-09-12T08:26:30.010Z,46.9
2018-09-12T08:31:27.613Z,46.2
2018-09-12T08:36:25.335Z,45.7
2018-09-12T08:41:22.770Z,45.2
2018-09-12T08:46:21.001Z,44.5
2018-09-12T08:51:18.534Z,44.6
2018-09-12T08:56:16.170Z,44.1
2018-09-12T09:01:13.928Z,43.1
2018-09-12T09:06:11.748Z,43
2018-09-12T09:11:09.340Z,43.3
2018-09-12T09:16:06.988Z,43.5
2018-09-12T09:21:05.007Z,43.2
2018-09-12T09:26:02.667Z,42.4
2018-09-12T09:31:00.617Z,42.1
2018-09-12T09:35:58.252Z,42.5
2018-09-12T09:40:55.702Z,42.4
2018-09-12T09:45:53.306Z,42.5
2018-09-12T09:50:51.207Z,42.1
2018-09-12T09:55:49.065Z,41.6
2018-09-12T10:00:47.090Z,40.8
2018-09-12T10:05:44.840Z,39.9
2018-09-12T10:10:42.627Z,39.2
2018-09-12T10:15:40.168Z,38.8
2018-09-12T10:20:37.931Z,39
2018-09-12T10:25:35.636Z,38.7
2018-09-12T10:30:33.338Z,37.4
2018-09-12T10:35:31.062Z,38.2
2018-09-12T10:40:29.297Z,38.2
2018-09-12T10:45:27.972Z,37.5
2018-09-12T10:50:26.164Z,37.5
2018-09-12T10:55:24.682Z,37.8
2018-09-12T11:00:22.294Z,37.9
2018-09-12T11:05:20.591Z,37.5
2018-09-12T11:10:18.675Z,37.4
2018-09-12T11:15:16.355Z,37.2
2018-09-12T11:20:14.177Z,36.9
2018-09-12T11:25:12.167Z,36.6
2018-09-12T11:30:09.905Z,35.9
2018-09-12T11:35:07.337Z,35.4
2018-09-12T11:40:04.792Z,35.4
2018-09-12T11:45:02.777Z,35.2
2018-09-12T11:50:00.910Z,35.3
2018-09-12T11:54:58.435Z,35.1
2018-09-12T11:59:56.220Z,35.4
2018-09-12T12:04:53.879Z,34.8
2018-09-12T12:09:51.260Z,35.3
2018-09-12T12:14:49.165Z,35.4
2018-09-12T12:19:47.505Z,34.5
2018-09-12T12:24:45.073Z,34.9
2018-09-12T12:29:42.522Z,35.1
2018-09-12T12:34:40.933Z,35.3
2018-09-12T12:39:38.562Z,35.3
2018-09-12T12:44:36.121Z,35.3
2018-09-12T12:49:34.144Z,35.4
2018-09-12T12:54:32.295Z,34.9
2018-09-12T12:59:31.179Z,34.8
2018-09-12T13:04:28.793Z,34.6
2018-09-12T13:09:26.444Z,34.4
2018-09-12T13:14:24.284Z,34.1
2018-09-12T13:19:22.343Z,33.9
2018-09-12T13:24:20.384Z,33.7
2018-09-12T13:29:17.782Z,33.7
2018-09-12T13:34:15.389Z,33.8
2018-09-12T13:39:12.570Z,33.9
2018-09-12T13:44:09.890Z,33.9
2018-09-12T13:49:07.698Z,33.8
2018-09-12T13:54:05.021Z,34.2
2018-09-12T13:59:03.041Z,34.1
2018-09-12T14:04:00.936Z,33.8
2018-09-12T14:08:58.326Z,34.1
2018-09-12T14:13:55.829Z,34.1
2018-09-12T14:18:53.365Z,34.2
2018-09-12T14:23:50.821Z,34.3
2018-09-12T14:28:48.400Z,34
2018-09-12T14:33:46.236Z,33.5
2018-09-12T14:38:44.251Z,33.8
2018-09-12T14:43:41.807Z,33.7
2018-09-12T14:48:39.368Z,33.4
2018-09-12T14:53:36.967Z,33.7
2018-09-12T14:58:34.839Z,33.7
2018-09-12T15:03:32.321Z,33.5
2018-09-12T15:08:30.769Z,33.6
2018-09-12T15:13:27.937Z,34.2
2018-09-12T15:18:25.621Z,34.2
2018-09-12T15:23:23.531Z,34.1
2018-09-12T15:28:21.138Z,33.8
2018-09-12T15:33:18.700Z,34.3
2018-09-12T15:38:16.166Z,34.5
2018-09-12T15:43:13.885Z,34.4
2018-09-12T15:48:11.927Z,34.6
2018-09-12T15:53:09.364Z,34.9
2018-09-12T15:58:07.570Z,34.8
2018-09-12T16:03:04.712Z,35.1
2018-09-12T16:08:02.537Z,35
2018-09-12T16:12:59.624Z,35.2
2018-09-12T16:17:57.162Z,35.4
2018-09-12T16:22:54.875Z,35.5
2018-09-12T16:27:52.737Z,35.5
2018-09-12T16:32:50.591Z,35.7
2018-09-12T16:37:48.225Z,36.1
2018-09-12T16:42:45.800Z,36.3
2018-09-12T16:47:43.146Z,36.6
2018-09-12T16:52:41.167Z,36.8
2018-09-12T16:57:38.775Z,36.9
2018-09-12T17:02:36.575Z,37.1
2018-09-12T17:07:34.161Z,37.2
2018-09-12T17:12:31.936Z,37.3
2018-09-12T17:17:29.488Z,37.5
2018-09-12T17:22:27.182Z,37.5
2018-09-12T17:27:24.777Z,37.6
2018-09-12T17:32:22.529Z,37.7
2018-09-12T17:37:19.978Z,38
2018-09-12T17:42:17.844Z,38.2
2018-09-12T17:47:15.658Z,38.4
2018-09-12T17:52:12.904Z,38.5
2018-09-12T17:57:10.722Z,38.6
2018-09-12T18:02:08.440Z,38.7
2018-09-12T18:07:07.473Z,38.8
2018-09-12T18:12:04.432Z,38.9
2018-09-12T18:17:02.071Z,39.1
2018-09-12T18:21:59.953Z,39.2
2018-09-12T18:26:57.485Z,39.4
2018-09-12T18:31:55.123Z,39.5
2018-09-12T18:36:52.685Z,39.7
2018-09-12T18:41:50.178Z,40
2018-09-12T18:46:47.705Z,40
2018-09-12T18:51:45.166Z,40.3
2018-09-12T18:56:43.491Z,40.4
2018-09-12T19:01:41.160Z,40.4
2018-09-12T19:06:39.187Z,40.4
2018-09-12T19:11:36.104Z,40.6
2018-09-12T19:16:33.722Z,40.8
2018-09-12T19:21:31.268Z,41
2018-09-12T19:26:29.416Z,41.1
2018-09-12T19:31:26.727Z,41.2
2018-09-12T19:36:24.313Z,41.3
2018-09-12T19:41:21.739Z,41.4
2018-09-12T19:46:19.326Z,41.5
2018-09-12T19:51:16.775Z,41.6
2018-09-12T19:56:14.431Z,41.7
2018-09-12T20:01:12.285Z,41.8
2018-09-12T20:06:09.640Z,41.9
2018-09-12T20:11:06.693Z,42.1
2018-09-12T20:16:04.359Z,42.2
2018-09-12T20:21:01.825Z,42.5
2018-09-12T20:26:00.631Z,42.7
2018-09-12T20:30:58.004Z,42.9
2018-09-12T20:35:56.248Z,43
2018-09-12T20:40:53.548Z,43.2
2018-09-12T20:45:50.877Z,43.3
2018-09-12T20:50:48.238Z,43.5
2018-09-12T20:55:45.843Z,43.6
2018-09-12T21:00:43.289Z,43.8
2018-09-12T21:05:45.057Z,43.8
2018-09-12T21:10:42.724Z,43.9
2018-09-12T21:15:40.439Z,44.1
2018-09-12T21:20:37.880Z,44.5
2018-09-12T21:25:35.467Z,44.5
2018-09-12T21:30:33.196Z,44.5
2018-09-12T21:35:30.324Z,44.6
2018-09-12T21:40:28.056Z,44.6
2018-09-12T21:45:26.006Z,44.7
2018-09-12T21:50:23.802Z,44.9
2018-09-12T21:55:21.833Z,45.1
2018-09-12T22:00:19.241Z,45.1
2018-09-12T22:05:17.455Z,45.2
2018-09-12T22:10:14.988Z,45.3
2018-09-12T22:15:12.742Z,45.3
2018-09-12T22:20:10.834Z,45.5
2018-09-12T22:25:08.624Z,45.6
2018-09-12T22:30:05.793Z,45.7
2018-09-12T22:35:03.919Z,45.7
2018-09-12T22:40:01.445Z,45.6
2018-09-12T22:44:58.895Z,45.6
2018-09-12T22:49:57.008Z,45.7
2018-09-12T22:54:54.816Z,45.8
2018-09-12T22:59:52.947Z,45.8
2018-09-12T23:04:50.873Z,45.9
2018-09-12T23:09:48.332Z,45.9
2018-09-12T23:14:46.011Z,46.2
2018-09-12T23:19:44.164Z,46.5
2018-09-12T23:24:43.051Z,46.6
2018-09-12T23:29:40.624Z,46.9
2018-09-12T23:34:39.039Z,47
2018-09-12T23:39:36.551Z,46.9
2018-09-12T23:44:34.366Z,46.8
2018-09-12T23:49:31.997Z,46.8
2018-09-12T23:54:31.074Z,46.7
2018-09-12T23:59:28.531Z,46.8
